createdAt,value
2018-07-03T00:00:13.622Z,24.18
2018-07-03T00:01:13.624Z,24.14
2018-07-03T00:02:13.523Z,24.21
2018-07-03T00:03:13.531Z,24.14
2018-07-03T00:04:13.553Z,24.21
2018-07-03T00:05:13.553Z,24.24
2018-07-03T00:06:13.572Z,24.25
2018-07-03T00:07:13.472Z,24.13
2018-07-03T00:08:13.447Z,24.09
2018-07-03T00:09:13.483Z,24.1
2018-07-03T00:10:13.515Z,24.22
2018-07-03T00:11:13.468Z,24.25
2018-07-03T00:12:13.498Z,24.25
2018-07-03T00:13:13.472Z,24.22
2018-07-03T00:14:13.449Z,24.24
2018-07-03T00:15:13.442Z,24.18
2018-07-03T00:16:13.465Z,24.11
2018-07-03T00:17:13.484Z,24.16
2018-07-03T00:18:13.504Z,24.16
2018-07-03T00:19:13.482Z,24.16
2018-07-03T00:20:13.485Z,24.14
2018-07-03T00:21:13.495Z,24.1
2018-07-03T00:22:13.455Z,24.21
2018-07-03T00:23:13.495Z,24.13
2018-07-03T00:24:13.478Z,24.1
2018-07-03T00:25:13.476Z,24.28
2018-07-03T00:26:13.587Z,24.22
2018-07-03T00:27:13.622Z,24.19
2018-07-03T00:28:13.599Z,24.13
2018-07-03T00:29:13.587Z,24.19
2018-07-03T00:30:13.580Z,24.16
2018-07-03T00:31:13.622Z,24.16
2018-07-03T00:32:13.694Z,24.21
2018-07-03T00:33:13.625Z,24.16
2018-07-03T00:34:13.567Z,24.18
2018-07-03T00:35:13.596Z,24.11
2018-07-03T00:36:13.632Z,24.22
2018-07-03T00:37:13.585Z,24.19
2018-07-03T00:38:13.563Z,24.14
2018-07-03T00:39:13.628Z,24.22
2018-07-03T00:40:13.607Z,24.13
2018-07-03T00:41:13.612Z,24.16
2018-07-03T00:42:13.977Z,24.18
2018-07-03T00:43:13.598Z,24.21
2018-07-03T00:44:13.594Z,24.24
2018-07-03T00:45:13.576Z,24.24
2018-07-03T00:46:13.620Z,24.25
2018-07-03T00:47:13.629Z,24.13
2018-07-03T00:48:13.629Z,24.18
2018-07-03T00:49:13.677Z,24.22
2018-07-03T00:50:13.604Z,24.14
2018-07-03T00:51:13.665Z,24.25
2018-07-03T00:52:13.650Z,24.09
2018-07-03T00:53:13.608Z,24.13
2018-07-03T00:54:13.686Z,24.11
2018-07-03T00:55:13.652Z,24.16
2018-07-03T00:56:13.607Z,24.22
2018-07-03T00:57:13.626Z,24.19
2018-07-03T00:58:13.670Z,24.14
2018-07-03T00:59:13.641Z,24.13
2018-07-03T01:00:13.622Z,24.11
2018-07-03T01:01:13.655Z,24.22
2018-07-03T01:02:13.649Z,24.16
2018-07-03T01:03:13.664Z,24.1
2018-07-03T01:04:13.647Z,24.14
2018-07-03T01:05:13.636Z,24.11
2018-07-03T01:06:13.646Z,24.1
2018-07-03T01:07:13.690Z,24.14
2018-07-03T01:08:13.685Z,24.18
2018-07-03T01:09:13.674Z,24.18
2018-07-03T01:12:20.723Z,24.13
2018-07-03T01:12:34.693Z,24.19
2018-07-03T01:19:15.001Z,24.16
2018-07-03T01:20:15.025Z,24.1
2018-07-03T01:21:14.974Z,24.13
2018-07-03T01:22:15.034Z,24.09
2018-07-03T01:23:15.013Z,24.14
2018-07-03T01:24:15.037Z,24.1
2018-07-03T01:25:15.025Z,24.1
2018-07-03T01:26:15.026Z,24.13
2018-07-03T01:27:14.948Z,24.18
2018-07-03T01:28:14.993Z,24.22
2018-07-03T01:29:15.025Z,24.16
2018-07-03T01:30:15.007Z,24.19
2018-07-03T01:31:15.012Z,24.09
2018-07-03T01:32:15.046Z,24.13
2018-07-03T01:33:15.040Z,24.07
2018-07-03T01:34:15.033Z,24.06
2018-07-03T01:35:14.997Z,24.1
2018-07-03T01:36:15.234Z,24.07
2018-07-03T01:37:14.991Z,24.07
2018-07-03T01:38:14.977Z,24.13
2018-07-03T01:39:15.014Z,24.04
2018-07-03T01:40:14.997Z,24.16
2018-07-03T01:41:15.034Z,24.09
2018-07-03T01:42:15.046Z,24.16
2018-07-03T01:43:15.030Z,24.06
2018-07-03T01:44:15.076Z,24.04
2018-07-03T01:45:15.070Z,24.09
2018-07-03T01:46:15.062Z,24.09
2018-07-03T01:47:15.038Z,24.11
2018-07-03T01:48:15.013Z,24.03
2018-07-03T01:49:15.043Z,24.09
2018-07-03T01:50:15.002Z,24.06
2018-07-03T01:51:15.032Z,24.1
2018-07-03T01:52:14.997Z,24.06
2018-07-03T01:53:15.041Z,24
2018-07-03T01:54:15.033Z,24.09
2018-07-03T01:55:15.046Z,24.07
2018-07-03T01:56:15.010Z,24
2018-07-03T01:57:15.089Z,24.09
2018-07-03T01:58:15.032Z,24.1
2018-07-03T01:59:15.055Z,24.04
2018-07-03T02:00:15.018Z,24.03
2018-07-03T02:01:15.018Z,24
2018-07-03T02:02:15.070Z,24.01
2018-07-03T02:03:15.029Z,24.09
2018-07-03T02:04:15.037Z,24.16
2018-07-03T02:05:15.026Z,24.01
2018-07-03T02:06:15.062Z,23.99
2018-07-03T02:07:15.091Z,24
2018-07-03T02:08:15.088Z,24
2018-07-03T02:09:15.070Z,24
2018-07-03T02:10:15.064Z,23.96
2018-07-03T02:11:15.066Z,24
2018-07-03T02:12:15.068Z,24.04
2018-07-03T02:13:15.119Z,24
2018-07-03T02:14:15.058Z,24.03
2018-07-03T02:15:15.108Z,23.99
2018-07-03T02:16:15.117Z,23.99
2018-07-03T02:17:15.097Z,23.95
2018-07-03T02:18:15.452Z,23.96
2018-07-03T02:19:15.090Z,23.96
2018-07-03T02:20:15.076Z,23.95
2018-07-03T02:21:15.096Z,23.96
2018-07-03T02:22:15.131Z,23.94
2018-07-03T02:23:15.096Z,23.94
2018-07-03T02:24:15.091Z,24.03
2018-07-03T02:25:15.118Z,24
2018-07-03T02:26:15.104Z,24
2018-07-03T02:27:15.125Z,23.99
2018-07-03T02:28:15.176Z,23.95
2018-07-03T02:29:15.097Z,24.04
2018-07-03T02:30:15.092Z,24.04
2018-07-03T02:31:15.157Z,23.99
2018-07-03T02:32:15.138Z,24
2018-07-03T02:33:15.124Z,24.01
2018-07-03T02:34:15.129Z,23.94
2018-07-03T02:35:15.147Z,24
2018-07-03T02:36:15.167Z,23.99
2018-07-03T02:37:15.094Z,23.92
2018-07-03T02:38:15.113Z,23.95
2018-07-03T02:39:15.307Z,23.94
2018-07-03T02:40:15.144Z,23.92
2018-07-03T02:41:15.110Z,24.04
2018-07-03T02:42:15.119Z,24.04
2018-07-03T02:43:15.137Z,24
2018-07-03T02:44:15.148Z,24.03
2018-07-03T02:45:15.125Z,23.96
2018-07-03T02:46:15.171Z,24.03
2018-07-03T02:47:16.803Z,24.03
2018-07-03T02:48:15.655Z,23.96
2018-07-03T02:49:15.258Z,24.01
2018-07-03T02:50:15.277Z,23.92
2018-07-03T02:51:15.139Z,23.96
2018-07-03T02:52:15.177Z,23.99
2018-07-03T02:53:15.140Z,23.96
2018-07-03T02:54:15.166Z,24
2018-07-03T02:55:15.164Z,24.03
2018-07-03T02:56:15.174Z,24
2018-07-03T02:58:19.653Z,23.99
2018-07-03T02:58:32.342Z,24
2018-07-03T02:59:32.355Z,24
2018-07-03T03:00:32.385Z,23.96
2018-07-03T03:01:32.385Z,23.96
2018-07-03T03:02:32.338Z,24
2018-07-03T03:03:32.367Z,23.95
2018-07-03T03:04:32.361Z,23.99
2018-07-03T03:05:32.349Z,24
2018-07-03T03:06:32.339Z,23.99
2018-07-03T03:07:32.317Z,23.99
2018-07-03T03:08:32.361Z,24.03
2018-07-03T03:09:32.357Z,23.99
2018-07-03T03:10:32.337Z,24.06
2018-07-03T03:11:32.415Z,23.99
2018-07-03T03:12:32.328Z,24.04
2018-07-03T03:13:32.365Z,23.99
2018-07-03T03:14:32.403Z,23.95
2018-07-03T03:15:32.360Z,23.95
2018-07-03T03:16:32.365Z,24.04
2018-07-03T03:17:32.320Z,23.99
2018-07-03T03:18:32.349Z,23.99
2018-07-03T03:19:32.421Z,23.99
2018-07-03T03:20:32.366Z,23.96
2018-07-03T03:21:32.429Z,24
2018-07-03T03:22:32.426Z,23.96
2018-07-03T03:23:32.702Z,24.01
2018-07-03T03:24:32.363Z,23.95
2018-07-03T03:25:32.441Z,23.99
2018-07-03T03:26:32.391Z,24
2018-07-03T03:27:32.412Z,24
2018-07-03T03:28:32.354Z,24.03
2018-07-03T03:29:32.410Z,24.03
2018-07-03T03:30:32.419Z,24.01
2018-07-03T03:31:32.422Z,23.94
2018-07-03T03:32:32.455Z,23.96
2018-07-03T03:33:32.466Z,23.99
2018-07-03T03:34:32.456Z,24
2018-07-03T03:35:32.439Z,23.96
2018-07-03T03:36:32.440Z,24
2018-07-03T03:37:32.425Z,23.94
2018-07-03T03:38:32.379Z,24
2018-07-03T03:39:32.402Z,23.99
2018-07-03T03:40:32.377Z,23.95
2018-07-03T03:41:32.400Z,23.96
2018-07-03T03:42:32.442Z,23.99
2018-07-03T03:43:32.420Z,24.01
2018-07-03T03:44:32.497Z,24.06
2018-07-03T03:45:32.424Z,23.96
2018-07-03T03:46:32.485Z,24.01
2018-07-03T03:47:32.400Z,24.03
2018-07-03T03:48:32.483Z,24.03
2018-07-03T03:49:32.451Z,23.96
2018-07-03T03:50:32.528Z,24.04
2018-07-03T03:51:32.494Z,24.01
2018-07-03T03:52:32.519Z,24
2018-07-03T03:53:32.797Z,24
2018-07-03T03:54:32.508Z,24.04
2018-07-03T03:55:32.431Z,24.1
2018-07-03T03:56:32.500Z,23.94
2018-07-03T03:57:32.437Z,23.94
2018-07-03T03:58:32.489Z,24
2018-07-03T03:59:32.455Z,23.96
2018-07-03T04:00:32.468Z,23.99
2018-07-03T04:01:32.508Z,24.06
2018-07-03T04:02:32.500Z,24.04
2018-07-03T04:03:32.476Z,24.04
2018-07-03T04:04:32.485Z,23.99
2018-07-03T04:05:32.446Z,23.96
2018-07-03T04:06:32.472Z,23.99
2018-07-03T04:07:32.578Z,24.01
2018-07-03T04:08:32.472Z,23.99
2018-07-03T04:09:32.478Z,24.01
2018-07-03T04:10:32.508Z,23.99
2018-07-03T04:11:32.545Z,24.03
2018-07-03T04:12:32.497Z,24.03
2018-07-03T04:13:32.504Z,24.03
2018-07-03T04:14:32.473Z,23.99
2018-07-03T04:15:32.515Z,23.99
2018-07-03T04:16:32.487Z,23.96
2018-07-03T04:17:32.494Z,23.99
2018-07-03T04:18:32.477Z,24.01
2018-07-03T04:19:32.482Z,23.96
2018-07-03T04:20:32.475Z,23.96
2018-07-03T04:21:32.493Z,23.96
2018-07-03T04:22:32.531Z,24
2018-07-03T04:23:32.510Z,24.01
2018-07-03T04:24:32.498Z,23.92
2018-07-03T04:25:32.560Z,23.95
2018-07-03T04:26:32.499Z,23.96
2018-07-03T04:27:32.666Z,23.92
2018-07-03T04:28:32.577Z,23.96
2018-07-03T04:29:32.576Z,23.94
2018-07-03T04:30:32.493Z,23.96
2018-07-03T04:31:32.560Z,24
2018-07-03T04:32:32.526Z,24.06
2018-07-03T04:33:32.535Z,24.04
2018-07-03T04:34:32.550Z,24.03
2018-07-03T04:35:32.507Z,23.96
2018-07-03T04:36:32.515Z,24.1
2018-07-03T04:37:32.533Z,24.1
2018-07-03T04:38:32.540Z,24.19
2018-07-03T04:39:32.557Z,24.01
2018-07-03T04:40:32.487Z,24.03
2018-07-03T04:41:32.623Z,24.06
2018-07-03T04:42:32.534Z,24.01
2018-07-03T04:43:32.520Z,24.01
2018-07-03T04:44:32.594Z,23.99
2018-07-03T04:45:32.549Z,24.01
2018-07-03T04:46:32.531Z,24.1
2018-07-03T04:47:32.543Z,24.07
2018-07-03T04:48:32.542Z,24.06
2018-07-03T04:49:32.484Z,23.99
2018-07-03T04:50:32.580Z,24.1
2018-07-03T04:51:32.530Z,24.09
2018-07-03T04:52:32.573Z,24.07
2018-07-03T04:53:32.676Z,24.09
2018-07-03T04:54:33.641Z,24.1
2018-07-03T04:55:32.551Z,24.18
2018-07-03T04:56:32.565Z,24.09
2018-07-03T04:57:32.590Z,24.25
2018-07-03T04:58:32.577Z,24.14
2018-07-03T04:59:32.566Z,24.14
2018-07-03T05:00:32.589Z,24.14
2018-07-03T05:01:32.577Z,24.21
2018-07-03T05:02:32.608Z,24.28
2018-07-03T05:03:32.607Z,24.22
2018-07-03T05:04:32.703Z,24.22
2018-07-03T05:05:32.681Z,24.24
2018-07-03T05:06:32.581Z,24.22
2018-07-03T05:07:33.373Z,24.22
2018-07-03T05:08:32.604Z,24.18
2018-07-03T05:09:32.581Z,24.25
2018-07-03T05:10:33.812Z,24.29
2018-07-03T05:11:32.625Z,24.28
2018-07-03T05:12:32.637Z,24.24
2018-07-03T05:13:32.608Z,24.26
2018-07-03T05:14:32.606Z,24.26
2018-07-03T05:15:32.612Z,24.28
2018-07-03T05:16:32.619Z,24.26
2018-07-03T05:17:32.821Z,24.26
2018-07-03T05:18:32.644Z,24.26
2018-07-03T05:19:32.628Z,24.31
2018-07-03T05:20:32.680Z,24.25
2018-07-03T05:21:32.687Z,24.24
2018-07-03T05:22:33.299Z,24.32
2018-07-03T05:23:32.627Z,24.32
2018-07-03T05:24:32.644Z,24.26
2018-07-03T05:25:32.629Z,24.28
2018-07-03T05:26:32.614Z,24.36
2018-07-03T05:27:32.622Z,24.4
2018-07-03T05:28:32.947Z,24.31
2018-07-03T05:29:32.632Z,24.31
2018-07-03T05:30:33.351Z,24.38
2018-07-03T05:31:32.834Z,24.34
2018-07-03T05:32:32.649Z,24.26
2018-07-03T05:33:32.617Z,24.22
2018-07-03T05:34:32.610Z,24.29
2018-07-03T05:35:32.592Z,24.29
2018-07-03T05:36:32.659Z,24.36
2018-07-03T05:37:32.685Z,24.29
2018-07-03T05:38:32.624Z,24.4
2018-07-03T05:39:32.630Z,24.21
2018-07-03T05:40:32.599Z,24.28
2018-07-03T05:41:32.587Z,24.32
2018-07-03T05:42:32.624Z,24.32
2018-07-03T05:43:32.605Z,24.24
2018-07-03T05:44:32.867Z,24.29
2018-07-03T05:45:32.639Z,24.31
2018-07-03T05:46:32.666Z,24.26
2018-07-03T05:47:32.714Z,24.25
2018-07-03T05:48:32.626Z,24.31
2018-07-03T05:49:32.701Z,24.36
2018-07-03T05:50:32.637Z,24.36
2018-07-03T05:51:32.661Z,24.25
2018-07-03T05:52:32.926Z,24.34
2018-07-03T05:53:32.660Z,24.31
2018-07-03T05:54:32.645Z,24.25
2018-07-03T05:55:32.710Z,24.28
2018-07-03T05:56:32.800Z,24.25
2018-07-03T05:57:32.675Z,24.26
2018-07-03T05:58:32.640Z,24.24
2018-07-03T05:59:34.066Z,24.31
2018-07-03T06:00:32.718Z,24.26
2018-07-03T06:01:32.697Z,24.31
2018-07-03T06:02:32.703Z,24.29
2018-07-03T06:04:37.170Z,24.19
2018-07-03T06:04:49.895Z,24.26
2018-07-03T06:05:50.197Z,24.25
2018-07-03T06:06:49.815Z,24.34
2018-07-03T06:07:49.881Z,24.29
2018-07-03T06:08:49.825Z,24.28
2018-07-03T06:09:49.933Z,24.32
2018-07-03T06:10:49.849Z,24.24
2018-07-03T06:11:49.840Z,24.22
2018-07-03T06:12:49.943Z,24.26
2018-07-03T06:13:49.926Z,24.26
2018-07-03T06:14:50.149Z,24.19
2018-07-03T06:15:49.928Z,24.22
2018-07-03T06:16:49.865Z,24.25
2018-07-03T06:17:49.865Z,24.25
2018-07-03T06:18:49.874Z,24.25
2018-07-03T06:19:49.855Z,24.24
2018-07-03T06:20:49.937Z,24.21
2018-07-03T06:21:49.971Z,24.25
2018-07-03T06:22:50.034Z,24.24
2018-07-03T06:23:49.951Z,24.19
2018-07-03T06:24:49.949Z,24.25
2018-07-03T06:25:49.895Z,24.25
2018-07-03T06:26:49.901Z,24.22
2018-07-03T06:27:49.871Z,24.13
2018-07-03T06:28:50.015Z,24.25
2018-07-03T06:29:50.266Z,24.21
2018-07-03T06:30:49.867Z,24.24
2018-07-03T06:31:49.946Z,24.13
2018-07-03T06:32:49.886Z,24.24
2018-07-03T06:33:49.986Z,24.21
2018-07-03T06:34:49.929Z,24.26
2018-07-03T06:35:49.939Z,24.11
2018-07-03T06:36:49.947Z,24.21
2018-07-03T06:37:49.905Z,24.18
2018-07-03T06:38:49.899Z,24.21
2018-07-03T06:39:49.953Z,24.21
2018-07-03T06:40:49.967Z,24.16
2018-07-03T06:41:49.908Z,24.24
2018-07-03T06:42:49.928Z,24.31
2018-07-03T06:43:49.973Z,24.19
2018-07-03T06:44:50.084Z,24.21
2018-07-03T06:45:49.923Z,24.22
2018-07-03T06:46:50.579Z,24.1
2018-07-03T06:47:49.894Z,24.13
2018-07-03T06:48:49.944Z,24.28
2018-07-03T06:49:49.915Z,24.22
2018-07-03T06:50:49.974Z,24.11
2018-07-03T06:51:50.126Z,24.14
2018-07-03T06:52:50.027Z,24.13
2018-07-03T06:53:49.920Z,24.25
2018-07-03T06:54:49.940Z,24.24
2018-07-03T06:55:49.933Z,24.21
2018-07-03T06:56:50.913Z,24.11
2018-07-03T06:57:50.016Z,24.24
2018-07-03T06:58:49.947Z,24.24
2018-07-03T06:59:49.996Z,24.22
2018-07-03T07:00:49.944Z,24.22
2018-07-03T07:01:49.931Z,24.28
2018-07-03T07:02:49.935Z,24.26
2018-07-03T07:03:49.975Z,24.1
2018-07-03T07:04:52.324Z,24.19
2018-07-03T07:05:49.965Z,24.24
2018-07-03T07:06:49.903Z,24.18
2018-07-03T07:07:50.021Z,24.16
2018-07-03T07:08:50.166Z,24.14
2018-07-03T07:09:49.924Z,24.14
2018-07-03T07:10:49.996Z,24.11
2018-07-03T07:11:49.935Z,24.24
2018-07-03T07:12:49.918Z,24.24
2018-07-03T07:13:50.002Z,24.24
2018-07-03T07:14:49.976Z,24.18
2018-07-03T07:15:49.949Z,24.07
2018-07-03T07:16:49.956Z,24.22
2018-07-03T07:17:49.993Z,24.13
2018-07-03T07:18:49.994Z,24.16
2018-07-03T07:19:49.934Z,24.1
2018-07-03T07:20:49.962Z,24.21
2018-07-03T07:21:49.943Z,24.18
2018-07-03T07:22:49.981Z,24.22
2018-07-03T07:23:49.988Z,24.24
2018-07-03T07:24:49.930Z,24.07
2018-07-03T07:25:49.975Z,24.11
2018-07-03T07:26:49.969Z,24.09
2018-07-03T07:27:49.994Z,24.22
2018-07-03T07:28:50.021Z,24.24
2018-07-03T07:29:49.962Z,24.16
2018-07-03T07:30:49.999Z,24.22
2018-07-03T07:31:50.021Z,24.24
2018-07-03T07:32:49.996Z,24.16
2018-07-03T07:34:50.281Z,24.21
2018-07-03T07:35:49.991Z,24.09
2018-07-03T07:36:49.986Z,24.18
2018-07-03T07:37:50.051Z,24.09
2018-07-03T07:38:50.001Z,24.21
2018-07-03T07:39:49.990Z,24.13
2018-07-03T07:40:49.975Z,24.19
2018-07-03T07:41:49.990Z,24.22
2018-07-03T07:42:50.165Z,24.16
2018-07-03T07:43:50.124Z,24.19
2018-07-03T07:44:50.050Z,24.07
2018-07-03T07:45:50.040Z,24.18
2018-07-03T07:46:50.035Z,24.16
2018-07-03T07:47:50.139Z,24.14
2018-07-03T07:48:50.026Z,24.13
2018-07-03T07:49:50.060Z,24.21
2018-07-03T07:50:50.029Z,24.19
2018-07-03T07:51:50.041Z,24.13
2018-07-03T07:52:50.053Z,24.09
2018-07-03T07:53:50.002Z,24.28
2018-07-03T07:54:50.136Z,24.21
2018-07-03T07:55:50.002Z,24.19
2018-07-03T07:56:50.054Z,24.07
2018-07-03T07:57:50.107Z,24.21
2018-07-03T07:58:50.063Z,24.1
2018-07-03T07:59:50.056Z,24.07
2018-07-03T08:00:49.996Z,24.1
2018-07-03T08:01:49.985Z,24.13
2018-07-03T08:02:50.018Z,24.18
2018-07-03T08:03:50.331Z,24.18
2018-07-03T08:04:50.019Z,24.09
2018-07-03T08:05:50.034Z,24.19
2018-07-03T08:06:50.138Z,24.14
2018-07-03T08:09:11.945Z,24.14
2018-07-03T08:10:24.447Z,24.1
2018-07-03T08:11:17.811Z,24.13
2018-07-03T08:12:01.593Z,24.22
2018-07-03T08:13:01.663Z,24.1
2018-07-03T08:14:01.663Z,24.19
2018-07-03T08:15:02.031Z,24.16
2018-07-03T08:16:01.642Z,24.14
2018-07-03T08:17:01.683Z,24.04
2018-07-03T08:18:01.687Z,24.19
2018-07-03T08:19:01.754Z,24.04
2018-07-03T08:20:01.628Z,24.07
2018-07-03T08:21:01.634Z,24.16
2018-07-03T08:22:01.657Z,24.11
2018-07-03T08:23:01.647Z,24.13
2018-07-03T08:24:01.748Z,24.25
2018-07-03T08:25:01.735Z,24.11
2018-07-03T08:26:01.645Z,24.11
2018-07-03T08:27:01.670Z,24.09
2018-07-03T08:28:01.643Z,24.07
2018-07-03T08:29:01.703Z,24.22
2018-07-03T08:30:01.669Z,24.14
2018-07-03T08:31:01.661Z,24.22
2018-07-03T08:32:01.638Z,24.14
2018-07-03T08:33:01.702Z,24.11
2018-07-03T08:34:01.777Z,24.13
2018-07-03T08:35:01.682Z,24.09
2018-07-03T08:36:01.694Z,24.11
2018-07-03T08:37:01.677Z,24.21
2018-07-03T08:38:01.715Z,24.06
2018-07-03T08:39:01.657Z,24.11
2018-07-03T08:40:01.757Z,24.06
2018-07-03T08:41:01.688Z,24.16
2018-07-03T08:42:01.696Z,24.13
2018-07-03T08:43:01.815Z,24.22
2018-07-03T08:44:01.713Z,24.22
2018-07-03T08:45:01.689Z,24.09
2018-07-03T08:46:01.763Z,24.16
2018-07-03T08:47:01.734Z,24.14
2018-07-03T08:48:01.687Z,24.22
2018-07-03T08:49:01.705Z,24.14
2018-07-03T08:50:01.749Z,24.18
2018-07-03T08:51:02.304Z,24.11
2018-07-03T08:52:01.860Z,24.18
2018-07-03T08:53:01.695Z,24.09
2018-07-03T08:54:01.698Z,24.06
2018-07-03T08:55:01.820Z,24.18
2018-07-03T08:56:01.770Z,24.13
2018-07-03T08:57:01.769Z,24.04
2018-07-03T08:58:01.699Z,24.19
2018-07-03T08:59:01.707Z,24.16
2018-07-03T09:00:01.713Z,24.06
2018-07-03T09:01:01.874Z,24.24
2018-07-03T09:02:01.769Z,24.11
2018-07-03T09:03:02.766Z,24.16
2018-07-03T09:04:01.788Z,24.19
2018-07-03T09:05:01.721Z,24.13
2018-07-03T09:06:01.787Z,24.13
2018-07-03T09:07:01.802Z,24.18
2018-07-03T09:08:01.707Z,24.07
2018-07-03T09:09:01.750Z,24.14
2018-07-03T09:10:01.729Z,24.14
2018-07-03T09:11:01.704Z,24.1
2018-07-03T09:12:01.794Z,24.28
2018-07-03T09:13:01.744Z,24.09
2018-07-03T09:14:01.764Z,24.14
2018-07-03T09:15:02.339Z,24.18
2018-07-03T09:16:01.757Z,24.16
2018-07-03T09:17:01.822Z,24.14
2018-07-03T09:18:01.917Z,24.11
2018-07-03T09:19:01.751Z,24.25
2018-07-03T09:20:01.859Z,24.11
2018-07-03T09:21:01.784Z,24.11
2018-07-03T09:22:01.732Z,24.11
2018-07-03T09:23:01.746Z,24.1
2018-07-03T09:24:01.784Z,24.11
2018-07-03T09:25:01.760Z,24.16
2018-07-03T09:26:01.711Z,24.21
2018-07-03T09:27:01.758Z,24.16
2018-07-03T09:28:01.762Z,24.14
2018-07-03T09:29:01.805Z,24.19
2018-07-03T09:30:01.819Z,24.16
2018-07-03T09:31:01.795Z,24.09
2018-07-03T09:32:01.828Z,24.16
2018-07-03T09:33:01.814Z,24.11
2018-07-03T09:34:01.744Z,24.11
2018-07-03T09:35:01.763Z,24.1
2018-07-03T09:36:01.756Z,24.13
2018-07-03T09:37:01.778Z,24.16
2018-07-03T09:38:01.792Z,24.14
2018-07-03T09:39:01.809Z,24.14
2018-07-03T09:40:01.851Z,24.14
2018-07-03T09:41:01.827Z,24.19
2018-07-03T09:42:01.819Z,24.13
2018-07-03T09:43:01.802Z,24.18
2018-07-03T09:44:01.797Z,24.13
2018-07-03T09:45:01.799Z,24.22
2018-07-03T09:46:04.338Z,24.14
2018-07-03T09:47:01.775Z,24.14
2018-07-03T09:48:01.799Z,24.16
2018-07-03T09:49:01.817Z,24.16
2018-07-03T09:50:01.807Z,24.09
2018-07-03T09:51:01.840Z,24.18
2018-07-03T09:52:03.315Z,24.11
2018-07-03T09:53:01.904Z,24.14
2018-07-03T09:54:01.860Z,24.11
2018-07-03T09:55:01.978Z,24.16
2018-07-03T09:56:01.851Z,24.19
2018-07-03T09:57:01.824Z,24.22
2018-07-03T09:58:01.796Z,24.13
2018-07-03T09:59:01.829Z,24.11
2018-07-03T10:00:01.903Z,24.16
2018-07-03T10:01:01.905Z,24.18
2018-07-03T10:02:01.966Z,24.24
2018-07-03T10:03:01.897Z,24.18
2018-07-03T10:04:01.874Z,24.14
2018-07-03T10:05:01.874Z,24.13
2018-07-03T10:06:01.859Z,24.13
2018-07-03T10:07:03.138Z,24.18
2018-07-03T10:08:01.915Z,24.22
2018-07-03T10:09:01.982Z,24.09
2018-07-03T10:10:01.897Z,24.25
2018-07-03T10:11:01.907Z,24.18
2018-07-03T10:12:01.872Z,24.21
2018-07-03T10:13:02.019Z,24.1
2018-07-03T10:14:02.639Z,24.25
2018-07-03T10:15:01.869Z,24.21
2018-07-03T10:16:02.328Z,24.13
2018-07-03T10:17:01.909Z,24.19
2018-07-03T10:18:01.913Z,24.09
2018-07-03T10:19:01.999Z,24.09
2018-07-03T10:20:01.928Z,24.16
2018-07-03T10:21:01.861Z,24.13
2018-07-03T10:22:02.083Z,24.16
2018-07-03T10:23:01.868Z,24.14
2018-07-03T10:24:01.939Z,24.06
2018-07-03T10:25:01.923Z,24.16
2018-07-03T10:26:01.885Z,24.14
2018-07-03T10:27:01.915Z,24.07
2018-07-03T10:28:01.899Z,24.24
2018-07-03T10:29:01.924Z,24.18
2018-07-03T10:30:01.908Z,24.11
2018-07-03T10:31:01.931Z,24.13
2018-07-03T10:32:01.885Z,24.11
2018-07-03T10:33:01.921Z,24.11
2018-07-03T10:34:01.987Z,24.22
2018-07-03T10:35:01.926Z,24.13
2018-07-03T10:36:01.900Z,24.14
2018-07-03T10:37:01.941Z,24.21
2018-07-03T10:38:01.950Z,24.22
2018-07-03T10:39:02.013Z,24.13
2018-07-03T10:40:01.961Z,24.11
2018-07-03T10:41:02.089Z,24.09
2018-07-03T10:42:02.491Z,24.13
2018-07-03T10:43:01.998Z,24.1
2018-07-03T10:44:01.911Z,24.22
2018-07-03T10:45:01.950Z,24.21
2018-07-03T10:46:02.364Z,24.22
2018-07-03T10:47:01.935Z,24.21
2018-07-03T10:48:01.952Z,24.06
2018-07-03T10:49:01.932Z,24.07
2018-07-03T10:50:02.035Z,24.19
2018-07-03T10:51:01.921Z,24.16
2018-07-03T10:52:01.915Z,24.21
2018-07-03T10:53:01.978Z,24.16
2018-07-03T10:54:01.987Z,24.18
2018-07-03T10:55:01.976Z,24.22
2018-07-03T10:56:01.931Z,24.16
2018-07-03T10:57:01.950Z,24.18
2018-07-03T10:58:01.986Z,24.22
2018-07-03T10:59:01.975Z,24.14
2018-07-03T11:00:01.955Z,24.16
2018-07-03T11:01:02.061Z,24.14
2018-07-03T11:02:01.934Z,24.16
2018-07-03T11:03:01.948Z,24.14
2018-07-03T11:04:01.981Z,24.21
2018-07-03T11:05:01.993Z,24.19
2018-07-03T11:06:03.600Z,24.22
2018-07-03T11:07:01.955Z,24.22
2018-07-03T11:08:01.967Z,24.19
2018-07-03T11:09:01.961Z,24.09
2018-07-03T11:10:01.971Z,24.1
2018-07-03T11:11:01.962Z,24.13
2018-07-03T11:12:01.960Z,24.1
2018-07-03T11:13:01.971Z,24.11
2018-07-03T11:14:02.180Z,24.18
2018-07-03T11:15:01.978Z,24.24
2018-07-03T11:16:02.064Z,24.25
2018-07-03T11:17:02.095Z,24.09
2018-07-03T11:18:01.975Z,24.09
2018-07-03T11:19:01.972Z,24.1
2018-07-03T11:20:02.162Z,24.16
2018-07-03T11:21:01.983Z,24.1
2018-07-03T11:22:01.960Z,24.11
2018-07-03T11:23:01.994Z,24.28
2018-07-03T11:24:01.950Z,24.09
2018-07-03T11:25:01.980Z,24.11
2018-07-03T11:26:02.011Z,24.16
2018-07-03T11:27:02.018Z,24.22
2018-07-03T11:28:02.089Z,24.14
2018-07-03T11:29:02.134Z,24.14
2018-07-03T11:30:02.094Z,24.21
2018-07-03T11:31:02.066Z,24.28
2018-07-03T11:32:02.030Z,24.14
2018-07-03T11:33:02.992Z,24.22
2018-07-03T11:34:01.998Z,24.11
2018-07-03T11:35:02.007Z,24.16
2018-07-03T11:36:02.052Z,24.18
2018-07-03T11:37:02.024Z,24.14
2018-07-03T11:38:02.065Z,24.09
2018-07-03T11:39:02.007Z,24.11
2018-07-03T11:40:02.108Z,24.13
2018-07-03T11:41:02.012Z,24.21
2018-07-03T11:42:02.031Z,24.22
2018-07-03T11:43:02.102Z,24.11
2018-07-03T11:44:02.037Z,24.22
2018-07-03T11:45:02.039Z,24.1
2018-07-03T11:46:02.077Z,24.18
2018-07-03T11:47:01.990Z,24.21
2018-07-03T11:48:02.012Z,24.11
2018-07-03T11:49:02.044Z,24.19
2018-07-03T11:50:02.028Z,24.14
2018-07-03T11:51:02.742Z,24.24
2018-07-03T11:52:02.050Z,24.19
2018-07-03T11:53:02.065Z,24.21
2018-07-03T11:54:02.029Z,24.21
2018-07-03T11:55:02.086Z,24.19
2018-07-03T11:56:02.022Z,24.21
2018-07-03T11:57:02.057Z,24.09
2018-07-03T11:58:02.061Z,24.1
2018-07-03T11:59:02.032Z,24.25
2018-07-03T12:00:02.128Z,24.11
2018-07-03T12:01:02.109Z,24.19
2018-07-03T12:02:02.247Z,24.21
2018-07-03T12:03:02.131Z,24.22
2018-07-03T12:04:02.079Z,24.26
2018-07-03T12:05:02.114Z,24.11
2018-07-03T12:06:02.104Z,24.11
2018-07-03T12:07:02.085Z,24.13
2018-07-03T12:08:02.183Z,24.24
2018-07-03T12:09:02.074Z,24.24
2018-07-03T12:10:02.147Z,24.25
2018-07-03T12:11:02.072Z,24.1
2018-07-03T12:12:02.095Z,24.19
2018-07-03T12:13:02.126Z,24.22
2018-07-03T12:14:02.064Z,24.22
2018-07-03T12:15:02.062Z,24.21
2018-07-03T12:16:02.178Z,24.16
2018-07-03T12:17:02.088Z,24.16
2018-07-03T12:18:02.738Z,24.18
2018-07-03T12:19:02.297Z,24.21
2018-07-03T12:20:02.159Z,24.14
2018-07-03T12:21:02.104Z,24.1
2018-07-03T12:22:02.442Z,24.24
2018-07-03T12:23:02.074Z,24.22
2018-07-03T12:24:02.092Z,24.13
2018-07-03T12:25:02.125Z,24.13
2018-07-03T12:26:02.083Z,24.14
2018-07-03T12:27:02.111Z,24.22
2018-07-03T12:28:02.055Z,24.25
2018-07-03T12:29:02.204Z,24.19
2018-07-03T12:30:02.066Z,24.16
2018-07-03T12:31:02.180Z,24.26
2018-07-03T12:32:02.137Z,24.16
2018-07-03T12:33:02.088Z,24.18
2018-07-03T12:34:02.127Z,24.22
2018-07-03T12:35:02.154Z,24.14
2018-07-03T12:36:02.135Z,24.13
2018-07-03T12:37:02.111Z,24.21
2018-07-03T12:38:02.184Z,24.16
2018-07-03T12:39:02.180Z,24.19
2018-07-03T12:40:02.148Z,24.16
2018-07-03T12:41:02.147Z,24.26
2018-07-03T12:42:02.160Z,24.22
2018-07-03T12:43:02.234Z,24.26
2018-07-03T12:44:02.290Z,24.18
2018-07-03T12:45:02.184Z,24.21
2018-07-03T12:46:02.209Z,24.21
2018-07-03T12:47:02.146Z,24.22
2018-07-03T12:48:02.148Z,24.14
2018-07-03T12:49:02.103Z,24.25
2018-07-03T12:50:02.163Z,24.21
2018-07-03T12:51:02.170Z,24.22
2018-07-03T12:52:02.460Z,24.16
2018-07-03T12:53:02.820Z,24.22
2018-07-03T12:54:02.164Z,24.14
2018-07-03T12:57:09.343Z,24.14
2018-07-03T12:57:22.087Z,24.14
2018-07-03T12:58:22.334Z,24.18
2018-07-03T12:59:21.985Z,24.1
2018-07-03T13:00:21.988Z,24.13
2018-07-03T13:01:22.067Z,24.19
2018-07-03T13:02:22.079Z,24.21
2018-07-03T13:03:21.952Z,24.21
2018-07-03T13:04:22.019Z,24.19
2018-07-03T13:05:22.018Z,24.25
2018-07-03T13:06:22.091Z,24.24
2018-07-03T13:07:21.939Z,24.24